Time;durP1;ratioP1;P1;durP2;ratioP2;P2;SDS_P1;SDS_P2;PMS_P1;PMS_P2;Temp;Humidity;BMP_temperature;BMP_pressure;BME280_temperature;BME280_humidity;BME280_pressure;Samples;Min_cycle;Max_cycle;Signal;HPM_P1;HPM_P2
2024/04/21 00:00:35;;;;;;;7.28;1.40;;;5.30;99.90;;;;;;5463827;26;20017;-76
2024/04/21 00:03:01;;;;;;;9.48;1.33;;;5.30;99.90;;;;;;5458984;26;20082;-77
2024/04/21 00:05:48;;;;;;;5.20;1.50;;;5.30;99.90;;;;;;5450847;26;20015;-77
2024/04/21 00:08:13;;;;;;;7.97;1.42;;;5.30;99.90;;;;;;5458427;26;20085;-77
2024/04/21 00:10:39;;;;;;;8.63;1.25;;;5.20;99.90;;;;;;5461957;26;20007;-77
2024/04/21 00:13:05;;;;;;;7.68;1.30;;;5.10;99.90;;;;;;5455523;26;20003;-77
2024/04/21 00:15:30;;;;;;;12.68;1.65;;;5.10;99.90;;;;;;5462883;26;20014;-76
2024/04/21 00:17:58;;;;;;;9.52;1.63;;;4.90;99.90;;;;;;5451155;26;20371;-76
2024/04/21 00:20:24;;;;;;;6.93;1.50;;;4.90;99.90;;;;;;5463090;26;20020;-76
2024/04/21 00:22:49;;;;;;;6.30;1.40;;;4.90;99.90;;;;;;5463294;26;20006;-76
2024/04/21 00:25:15;;;;;;;7.97;1.30;;;4.90;99.90;;;;;;5455725;26;20018;-76
2024/04/21 00:28:01;;;;;;;7.25;1.50;;;4.80;99.90;;;;;;5460277;26;20007;-76
2024/04/21 00:30:26;;;;;;;8.98;2.08;;;4.80;99.90;;;;;;5454727;26;20006;-76
2024/04/21 00:32:52;;;;;;;9.57;1.45;;;4.80;99.90;;;;;;5460023;26;20006;-77
2024/04/21 00:35:18;;;;;;;8.27;2.00;;;4.70;99.90;;;;;;5465388;26;20029;-76
2024/04/21 00:37:43;;;;;;;14.45;2.10;;;4.70;99.90;;;;;;5468545;26;19998;-76
2024/04/21 00:40:09;;;;;;;8.43;1.73;;;4.60;99.90;;;;;;5466858;26;20002;-76
2024/04/21 00:42:35;;;;;;;10.05;2.20;;;4.60;99.90;;;;;;5449290;26;20006;-76
2024/04/21 00:45:01;;;;;;;11.68;2.30;;;4.60;99.90;;;;;;5473533;26;20003;-76
2024/04/21 00:47:26;;;;;;;10.30;1.98;;;4.70;99.90;;;;;;5451504;26;20007;-76
2024/04/21 00:49:52;;;;;;;12.07;1.83;;;4.70;99.90;;;;;;5461248;26;20003;-76
2024/04/21 00:52:18;;;;;;;11.70;1.92;;;4.70;99.90;;;;;;5458583;26;20006;-76
2024/04/21 00:54:43;;;;;;;10.45;1.95;;;4.70;99.90;;;;;;5464619;26;20011;-76
2024/04/21 00:57:09;;;;;;;13.77;2.22;;;4.80;99.90;;;;;;5451206;26;20484;-76
2024/04/21 00:59:35;;;;;;;12.40;1.90;;;4.80;99.90;;;;;;5459353;26;20006;-76
2024/04/21 01:02:01;;;;;;;9.98;2.15;;;4.80;99.90;;;;;;5463059;26;20355;-77
2024/04/21 01:04:29;;;;;;;8.85;1.80;;;5.00;99.90;;;;;;5450564;26;20003;-76
2024/04/21 01:06:55;;;;;;;10.75;2.00;;;4.80;99.90;;;;;;5457547;26;20026;-76
2024/04/21 01:09:21;;;;;;;13.55;2.00;;;4.90;99.90;;;;;;5453811;26;20013;-76
2024/04/21 01:11:50;;;;;;;13.75;1.95;;;4.80;99.90;;;;;;5459362;26;20007;-76
2024/04/21 01:14:16;;;;;;;14.40;2.47;;;4.90;99.90;;;;;;5477593;26;20022;-76
2024/04/21 01:16:42;;;;;;;20.83;3.15;;;5.30;99.90;;;;;;5476917;26;20007;-77
2024/04/21 01:19:08;;;;;;;11.93;1.95;;;4.90;99.90;;;;;;5462112;26;20014;-77
2024/04/21 01:21:33;;;;;;;19.27;2.63;;;5.00;99.90;;;;;;5468043;26;20006;-77
2024/04/21 01:23:59;;;;;;;13.25;2.10;;;5.00;99.90;;;;;;5471850;26;20006;-77
2024/04/21 01:26:25;;;;;;;10.95;2.22;;;5.00;99.90;;;;;;5457007;26;20006;-77
2024/04/21 01:28:51;;;;;;;12.15;1.98;;;5.10;99.90;;;;;;5457907;26;20003;-77
2024/04/21 01:31:16;;;;;;;13.32;2.35;;;5.10;99.90;;;;;;5451979;26;20119;-78
2024/04/21 01:34:02;;;;;;;9.18;2.78;;;5.10;99.90;;;;;;5467439;26;20010;-78
2024/04/21 01:36:28;;;;;;;11.48;2.00;;;5.20;99.90;;;;;;5467892;26;20082;-78
2024/04/21 01:38:53;;;;;;;10.90;2.15;;;5.20;99.90;;;;;;5448001;26;20021;-78
2024/04/21 01:41:19;;;;;;;7.45;2.03;;;5.20;99.90;;;;;;5460687;26;20382;-78
2024/04/21 01:43:45;;;;;;;9.13;2.05;;;5.20;99.90;;;;;;5460994;26;20046;-78
2024/04/21 01:46:10;;;;;;;7.22;2.05;;;5.20;99.90;;;;;;5459369;26;20015;-78
2024/04/21 01:48:36;;;;;;;14.23;2.30;;;5.20;99.90;;;;;;5459767;26;20062;-78
2024/04/21 01:51:02;;;;;;;14.65;2.85;;;5.20;99.90;;;;;;5447108;26;20006;-78
2024/04/21 01:53:27;;;;;;;15.35;2.65;;;5.20;99.90;;;;;;5448068;26;20050;-78
2024/04/21 01:55:53;;;;;;;11.88;1.88;;;5.20;99.90;;;;;;5454443;26;20051;-78
2024/04/21 01:58:19;;;;;;;10.93;2.05;;;5.20;99.90;;;;;;5461064;26;20019;-78
2024/04/21 02:00:44;;;;;;;8.65;1.70;;;5.20;99.90;;;;;;5486536;26;20454;-78
2024/04/21 02:03:10;;;;;;;9.13;1.50;;;5.20;99.90;;;;;;5473518;26;20713;-78
2024/04/21 02:05:36;;;;;;;9.20;1.88;;;5.20;99.90;;;;;;5464760;26;20009;-78
2024/04/21 02:08:22;;;;;;;7.93;1.50;;;5.20;99.90;;;;;;5458132;26;20011;-78
2024/04/21 02:10:48;;;;;;;7.90;1.40;;;5.20;99.90;;;;;;5464795;26;20091;-78
2024/04/21 02:13:13;;;;;;;7.50;1.42;;;5.10;99.90;;;;;;5455935;26;20042;-78
2024/04/21 02:15:39;;;;;;;4.20;1.13;;;5.10;99.90;;;;;;5460171;26;20121;-78
2024/04/21 02:18:05;;;;;;;6.05;1.50;;;5.00;99.90;;;;;;5465187;26;20007;-78
2024/04/21 02:20:30;;;;;;;10.55;1.52;;;5.10;99.90;;;;;;5461653;26;20054;-78
2024/04/21 02:22:56;;;;;;;6.55;1.20;;;5.00;99.90;;;;;;5464133;26;20007;-78
2024/04/21 02:25:22;;;;;;;8.85;1.45;;;5.00;99.90;;;;;;5472065;26;20010;-78
2024/04/21 02:27:47;;;;;;;4.50;1.10;;;5.00;99.90;;;;;;5464537;26;20444;-78
2024/04/21 02:30:13;;;;;;;8.23;1.25;;;5.00;99.90;;;;;;5455111;26;20017;-78
2024/04/21 02:32:39;;;;;;;3.92;0.98;;;5.00;99.90;;;;;;5454950;26;20017;-78
2024/04/21 02:35:04;;;;;;;5.65;0.95;;;5.00;99.90;;;;;;5461982;26;20003;-78
2024/04/21 02:37:30;;;;;;;7.38;1.52;;;5.00;99.90;;;;;;5459095;26;20007;-78
2024/04/21 02:39:56;;;;;;;2.78;0.80;;;5.00;99.90;;;;;;5454317;26;20002;-78
2024/04/21 02:42:21;;;;;;;5.57;0.90;;;5.00;99.90;;;;;;5475437;26;20027;-78
2024/04/21 02:44:47;;;;;;;3.97;0.88;;;5.00;99.90;;;;;;5472301;26;20002;-78
2024/04/21 02:47:13;;;;;;;3.58;0.93;;;5.10;99.90;;;;;;5447385;26;20018;-78
2024/04/21 02:49:39;;;;;;;5.15;1.02;;;5.10;99.90;;;;;;5451943;26;20007;-78
2024/04/21 02:52:04;;;;;;;3.08;0.73;;;5.10;99.90;;;;;;5471898;26;19999;-78
2024/04/21 02:54:30;;;;;;;4.13;0.88;;;5.20;99.90;;;;;;5461650;26;20013;-78
2024/04/21 02:56:56;;;;;;;4.45;0.80;;;5.20;99.90;;;;;;5456945;26;20087;-78
2024/04/21 02:59:21;;;;;;;1.38;0.73;;;5.20;99.90;;;;;;5476046;26;20042;-78
2024/04/21 03:01:50;;;;;;;3.28;0.95;;;5.20;99.90;;;;;;5458461;26;20050;-77
2024/04/21 03:04:17;;;;;;;2.35;0.80;;;5.30;99.90;;;;;;5480091;26;20006;-78
2024/04/21 03:06:46;;;;;;;2.97;0.75;;;5.20;99.90;;;;;;5448821;26;20011;-78
2024/04/21 03:09:12;;;;;;;3.92;0.90;;;5.30;99.90;;;;;;5448000;26;20034;-78
2024/04/21 03:11:38;;;;;;;4.95;1.10;;;5.30;99.90;;;;;;5449664;26;20007;-78
2024/04/21 03:14:03;;;;;;;4.13;1.00;;;5.20;99.90;;;;;;5459439;26;20055;-78
2024/04/21 03:16:49;;;;;;;6.38;1.05;;;5.30;99.90;;;;;;5470205;26;20013;-78
2024/04/21 03:19:35;;;;;;;3.55;1.10;;;5.30;99.90;;;;;;5477036;26;20009;-77
2024/04/21 03:22:21;;;;;;;3.03;0.95;;;5.30;99.90;;;;;;5461173;26;20079;-77
2024/04/21 03:25:07;;;;;;;2.38;0.98;;;5.70;99.90;;;;;;5453118;26;20014;-77
2024/04/21 03:27:52;;;;;;;3.75;1.23;;;5.30;99.90;;;;;;5465392;26;20392;-77
2024/04/21 03:30:38;;;;;;;3.20;1.05;;;5.30;99.90;;;;;;5483169;26;20098;-77
2024/04/21 03:33:24;;;;;;;3.65;1.00;;;5.30;99.90;;;;;;5461781;26;20005;-77
2024/04/21 03:36:10;;;;;;;1.98;0.93;;;5.20;99.90;;;;;;5475519;26;20452;-77
2024/04/21 03:38:56;;;;;;;7.07;0.95;;;5.30;99.90;;;;;;5480794;26;20367;-77
2024/04/21 03:41:41;;;;;;;5.70;1.40;;;5.20;99.90;;;;;;5447139;26;20003;-77
2024/04/21 03:44:27;;;;;;;6.40;1.55;;;5.20;99.90;;;;;;5456692;26;20219;-77
2024/04/21 03:47:13;;;;;;;8.13;1.58;;;5.10;99.90;;;;;;5448754;26;20027;-77
2024/04/21 03:49:59;;;;;;;9.07;1.88;;;5.10;99.90;;;;;;5474460;26;20070;-77
2024/04/21 03:52:45;;;;;;;5.90;1.40;;;5.00;99.90;;;;;;5462687;26;20012;-77
2024/04/21 03:55:30;;;;;;;6.97;1.52;;;5.00;99.90;;;;;;5453608;26;20011;-77
2024/04/21 03:58:16;;;;;;;6.00;1.30;;;5.00;99.90;;;;;;5474456;26;20455;-77
2024/04/21 04:01:02;;;;;;;8.55;2.00;;;5.00;99.90;;;;;;5451036;26;20348;-77
2024/04/21 04:03:47;;;;;;;5.20;1.80;;;5.00;99.90;;;;;;5471805;26;20003;-77
2024/04/21 04:06:33;;;;;;;6.90;1.77;;;5.20;99.90;;;;;;5476579;26;20002;-77
2024/04/21 04:09:19;;;;;;;8.18;1.80;;;4.90;99.90;;;;;;5456506;26;20003;-77
2024/04/21 04:12:05;;;;;;;6.30;2.03;;;4.90;99.90;;;;;;5448531;26;20744;-77
2024/04/21 04:14:52;;;;;;;9.43;2.10;;;4.80;99.90;;;;;;5459168;26;20022;-77
2024/04/21 04:17:38;;;;;;;7.18;2.00;;;4.80;99.90;;;;;;5480689;26;20006;-77
2024/04/21 04:20:24;;;;;;;5.65;1.80;;;4.80;99.90;;;;;;5476259;26;20082;-77
2024/04/21 04:23:11;;;;;;;6.03;1.65;;;4.80;99.90;;;;;;5445522;26;20469;-77
2024/04/21 04:25:56;;;;;;;5.15;1.77;;;4.70;99.90;;;;;;5455981;26;20013;-77
2024/04/21 04:28:42;;;;;;;4.05;1.63;;;4.70;99.90;;;;;;5461164;26;20017;-77
2024/04/21 04:31:28;;;;;;;3.28;1.55;;;4.80;99.90;;;;;;5455046;26;20007;-77
2024/04/21 04:33:53;;;;;;;4.45;1.55;;;4.60;99.90;;;;;;5468750;26;20013;-77
2024/04/21 04:36:19;;;;;;;8.25;1.42;;;4.60;99.90;;;;;;5468623;26;20022;-77
2024/04/21 04:38:45;;;;;;;6.47;1.40;;;4.60;99.90;;;;;;5464032;26;20074;-77
2024/04/21 04:41:31;;;;;;;3.70;1.35;;;4.50;99.90;;;;;;5453071;26;20013;-77
2024/04/21 04:44:16;;;;;;;4.35;1.55;;;4.50;99.90;;;;;;5446384;26;20003;-78
2024/04/21 04:47:02;;;;;;;4.82;1.30;;;4.40;99.90;;;;;;5481762;26;20002;-78
2024/04/21 04:49:28;;;;;;;2.95;1.02;;;4.40;99.90;;;;;;5468086;26;20394;-78
2024/04/21 04:52:13;;;;;;;3.45;1.05;;;4.40;99.90;;;;;;5449510;26;20344;-78
2024/04/21 04:55:00;;;;;;;3.88;1.02;;;4.40;99.90;;;;;;5472707;26;20002;-78
2024/04/21 04:57:26;;;;;;;7.00;1.15;;;4.30;99.90;;;;;;5465008;26;20070;-78
2024/04/21 04:59:52;;;;;;;4.60;1.30;;;4.30;99.90;;;;;;5460465;26;20019;-77
2024/04/21 05:02:17;;;;;;;5.28;1.20;;;4.30;99.90;;;;;;5460821;26;20764;-77
2024/04/21 05:04:43;;;;;;;3.60;1.30;;;4.30;99.90;;;;;;5477210;26;20003;-77
2024/04/21 05:07:09;;;;;;;6.75;1.30;;;4.30;99.90;;;;;;5477619;26;20010;-77
2024/04/21 05:09:35;;;;;;;3.92;1.13;;;4.30;99.90;;;;;;5461826;26;20017;-77
2024/04/21 05:12:01;;;;;;;6.47;1.20;;;4.20;99.90;;;;;;5473852;26;20021;-77
2024/04/21 05:14:28;;;;;;;6.18;1.30;;;4.20;99.90;;;;;;5452642;26;20003;-77
2024/04/21 05:16:55;;;;;;;5.90;1.33;;;4.20;99.90;;;;;;5459140;26;20071;-77
2024/04/21 05:19:21;;;;;;;4.85;1.35;;;4.20;99.90;;;;;;5459670;26;20474;-77
2024/04/21 05:21:47;;;;;;;5.50;1.20;;;4.20;99.90;;;;;;5461146;26;20006;-77
2024/04/21 05:24:12;;;;;;;5.75;1.27;;;4.20;99.90;;;;;;5456472;26;20017;-77
2024/04/21 05:26:38;;;;;;;5.93;1.15;;;4.20;99.90;;;;;;5477938;26;20457;-77
2024/04/21 05:29:04;;;;;;;7.55;1.48;;;4.20;99.90;;;;;;5450261;26;20018;-77
2024/04/21 05:31:29;;;;;;;6.13;1.38;;;4.20;99.90;;;;;;5462644;26;20624;-77
2024/04/21 05:33:55;;;;;;;8.05;1.77;;;4.30;99.90;;;;;;5450224;26;20015;-77
2024/04/21 05:36:21;;;;;;;5.50;1.20;;;4.20;99.90;;;;;;5463273;26;20355;-77
2024/04/21 05:38:46;;;;;;;5.80;1.35;;;4.20;99.90;;;;;;5463975;26;20006;-77
2024/04/21 05:41:12;;;;;;;8.15;1.35;;;4.20;99.90;;;;;;5448574;26;20007;-77
2024/04/21 05:43:38;;;;;;;5.53;1.23;;;4.20;99.90;;;;;;5451157;26;20014;-77
2024/04/21 05:46:04;;;;;;;5.25;1.30;;;4.20;99.90;;;;;;5460837;26;20035;-77
2024/04/21 05:48:30;;;;;;;7.30;1.45;;;4.20;99.90;;;;;;5467119;26;20059;-77
2024/04/21 05:50:56;;;;;;;2.90;1.00;;;4.30;99.90;;;;;;5458803;26;20479;-78
2024/04/21 05:53:22;;;;;;;7.30;1.75;;;4.20;99.90;;;;;;5463341;26;20039;-78
2024/04/21 05:55:48;;;;;;;3.75;1.25;;;4.20;99.90;;;;;;5457062;26;20347;-78
2024/04/21 05:58:13;;;;;;;6.60;1.50;;;4.20;99.90;;;;;;5449566;26;20019;-78
2024/04/21 06:00:39;;;;;;;5.43;1.27;;;4.20;99.90;;;;;;5453885;26;20007;-78
2024/04/21 06:03:05;;;;;;;6.20;1.50;;;4.20;99.90;;;;;;5458994;26;20147;-78
2024/04/21 06:05:32;;;;;;;9.25;1.30;;;4.20;99.90;;;;;;5457174;26;20014;-78
2024/04/21 06:07:58;;;;;;;4.43;1.55;;;5.10;99.90;;;;;;5486035;26;20006;-78
2024/04/21 06:10:24;;;;;;;9.57;1.80;;;5.00;99.90;;;;;;5470586;26;20022;-78
2024/04/21 06:12:53;;;;;;;5.35;1.60;;;4.30;99.90;;;;;;5455797;26;20354;-78
2024/04/21 06:15:19;;;;;;;5.55;1.63;;;4.30;99.90;;;;;;5475239;26;20020;-78
2024/04/21 06:17:46;;;;;;;7.45;1.90;;;4.30;99.90;;;;;;5454627;26;20018;-78
2024/04/21 06:20:12;;;;;;;4.15;1.60;;;4.30;99.90;;;;;;5458750;26;20003;-78
2024/04/21 06:22:38;;;;;;;4.65;1.70;;;4.30;99.90;;;;;;5466914;26;21465;-78
2024/04/21 06:25:04;;;;;;;5.47;1.60;;;4.30;99.90;;;;;;5449766;26;20083;-77
2024/04/21 06:27:30;;;;;;;9.25;1.80;;;4.40;99.90;;;;;;5477031;26;20002;-77
2024/04/21 06:29:57;;;;;;;12.07;2.75;;;4.40;99.90;;;;;;5455372;26;20051;-77
2024/04/21 06:32:23;;;;;;;10.75;2.53;;;4.40;99.90;;;;;;5448633;26;20466;-77
2024/04/21 06:34:48;;;;;;;10.20;2.35;;;4.40;99.90;;;;;;5453923;26;20014;-77
2024/04/21 06:37:14;;;;;;;7.72;2.58;;;4.50;99.90;;;;;;5459403;26;20083;-77
2024/04/21 06:39:39;;;;;;;13.63;3.00;;;4.50;99.90;;;;;;5447837;26;20011;-77
2024/04/21 06:42:05;;;;;;;9.60;2.90;;;4.50;99.90;;;;;;5461164;26;20453;-77
2024/04/21 06:44:31;;;;;;;13.00;3.05;;;4.60;99.90;;;;;;5467456;26;20024;-77
2024/04/21 06:46:57;;;;;;;7.47;2.40;;;4.60;99.90;;;;;;5451406;26;20007;-77
2024/04/21 06:49:22;;;;;;;8.15;2.15;;;4.60;99.90;;;;;;5448935;26;20355;-77
2024/04/21 06:51:48;;;;;;;7.07;2.30;;;4.70;99.90;;;;;;5461337;26;20474;-77
2024/04/21 06:54:14;;;;;;;7.35;2.42;;;4.60;99.90;;;;;;5470235;26;20003;-77
2024/04/21 06:56:39;;;;;;;7.60;2.20;;;4.70;99.90;;;;;;5464027;26;20007;-77
2024/04/21 06:59:05;;;;;;;7.35;2.28;;;4.80;99.90;;;;;;5458484;26;20007;-77
2024/04/21 07:01:31;;;;;;;7.03;2.03;;;4.80;99.90;;;;;;5472062;26;20006;-77
2024/04/21 07:03:56;;;;;;;8.10;2.20;;;5.00;99.90;;;;;;5485165;26;20046;-77
2024/04/21 07:06:22;;;;;;;6.28;2.22;;;4.90;99.90;;;;;;5458127;26;20007;-77
2024/04/21 07:08:48;;;;;;;4.78;2.10;;;5.00;99.90;;;;;;5478772;26;20006;-77
2024/04/21 07:11:14;;;;;;;7.00;2.35;;;5.00;99.90;;;;;;5455817;26;20321;-77
2024/04/21 07:13:39;;;;;;;5.72;2.60;;;5.10;99.90;;;;;;5448115;26;20025;-77
2024/04/21 07:16:05;;;;;;;6.28;2.83;;;5.10;99.90;;;;;;5448573;26;20011;-77
2024/04/21 07:18:31;;;;;;;6.47;2.95;;;5.20;99.90;;;;;;5456978;26;20048;-77
2024/04/21 07:20:58;;;;;;;7.65;3.53;;;5.40;99.90;;;;;;5458777;26;20030;-77
2024/04/21 07:23:23;;;;;;;6.38;2.85;;;5.20;99.90;;;;;;5456773;26;20007;-77
2024/04/21 07:25:49;;;;;;;6.22;3.30;;;5.20;99.90;;;;;;5460953;26;20014;-77
2024/04/21 07:28:15;;;;;;;10.00;3.00;;;5.20;99.90;;;;;;5458209;26;20683;-77
2024/04/21 07:30:40;;;;;;;8.38;3.28;;;5.30;99.90;;;;;;5454950;26;20021;-77
2024/04/21 07:33:06;;;;;;;5.97;2.97;;;5.40;99.90;;;;;;5470083;26;20006;-77
2024/04/21 07:35:32;;;;;;;6.50;3.08;;;5.50;99.90;;;;;;5466272;26;20353;-77
2024/04/21 07:37:57;;;;;;;8.55;3.28;;;5.60;99.90;;;;;;5466282;26;20006;-77
2024/04/21 07:40:23;;;;;;;6.20;3.08;;;5.70;99.90;;;;;;5456436;26;20340;-77
2024/04/21 07:42:49;;;;;;;5.82;3.28;;;5.80;99.90;;;;;;5463249;26;20017;-77
2024/04/21 07:45:14;;;;;;;7.28;3.67;;;5.90;99.90;;;;;;5470692;26;20017;-77
2024/04/21 07:47:40;;;;;;;8.75;3.63;;;6.00;99.90;;;;;;5463456;26;20017;-77
2024/04/21 07:50:06;;;;;;;7.63;3.17;;;6.00;99.90;;;;;;5456387;26;20010;-77
2024/04/21 07:52:32;;;;;;;8.57;3.47;;;6.10;99.90;;;;;;5463293;26;20529;-77
2024/04/21 07:54:58;;;;;;;7.00;3.17;;;6.10;99.90;;;;;;5448800;26;20087;-77
2024/04/21 07:57:24;;;;;;;8.02;3.50;;;6.10;99.90;;;;;;5448422;26;20018;-77
2024/04/21 07:59:49;;;;;;;7.40;3.05;;;6.10;99.90;;;;;;5456189;26;19998;-77
2024/04/21 08:02:15;;;;;;;7.22;3.70;;;6.10;99.90;;;;;;5463917;26;20428;-77
2024/04/21 08:04:41;;;;;;;8.90;3.75;;;6.10;99.90;;;;;;5464168;26;20347;-77
2024/04/21 08:07:07;;;;;;;8.93;3.80;;;6.20;99.90;;;;;;5456150;26;20078;-77
2024/04/21 08:09:34;;;;;;;11.63;4.20;;;6.20;99.90;;;;;;5462782;26;20033;-77
2024/04/21 08:12:01;;;;;;;11.38;3.58;;;6.20;99.90;;;;;;5451895;26;20006;-77
2024/04/21 08:14:27;;;;;;;6.60;3.05;;;6.20;99.90;;;;;;5463168;26;20006;-77
2024/04/21 08:16:53;;;;;;;7.47;3.40;;;6.20;99.90;;;;;;5448304;26;20017;-77
2024/04/21 08:19:19;;;;;;;5.88;3.38;;;6.30;99.90;;;;;;5456490;26;20005;-77
2024/04/21 08:21:46;;;;;;;9.38;4.15;;;6.30;99.90;;;;;;5468886;26;20034;-77
2024/04/21 08:24:12;;;;;;;7.20;3.65;;;6.40;99.90;;;;;;5480065;26;20025;-77
2024/04/21 08:26:38;;;;;;;9.05;3.75;;;6.50;99.90;;;;;;5461383;26;20018;-77
2024/04/21 08:29:03;;;;;;;8.32;4.07;;;6.70;99.90;;;;;;5448164;26;20075;-77
2024/04/21 08:31:29;;;;;;;11.07;4.32;;;6.80;99.90;;;;;;5464464;26;20017;-77
2024/04/21 08:33:55;;;;;;;7.75;3.78;;;6.90;99.90;;;;;;5459264;26;20007;-77
2024/04/21 08:36:20;;;;;;;9.88;4.22;;;7.00;99.90;;;;;;5451616;26;20019;-77
2024/04/21 08:38:46;;;;;;;7.20;3.67;;;7.00;99.90;;;;;;5461609;26;20452;-77
2024/04/21 08:41:16;;;;;;;9.10;4.15;;;7.10;99.90;;;;;;5455822;26;20082;-77
2024/04/21 08:43:41;;;;;;;6.35;3.88;;;7.10;99.90;;;;;;5456734;26;20006;-77
2024/04/21 08:46:09;;;;;;;8.88;4.20;;;7.10;99.90;;;;;;5466647;26;20015;-77
2024/04/21 08:48:35;;;;;;;7.07;3.72;;;7.30;99.90;;;;;;5444648;26;20017;-77
2024/04/21 08:51:02;;;;;;;8.02;3.78;;;7.50;99.90;;;;;;5462705;26;20476;-77
2024/04/21 08:53:28;;;;;;;7.05;3.38;;;7.70;99.90;;;;;;5459336;26;20489;-77
2024/04/21 08:55:59;;;;;;;8.38;3.80;;;7.90;99.90;;;;;;5454298;26;20059;-77
2024/04/21 08:58:25;;;;;;;13.27;3.83;;;8.10;99.90;;;;;;5446525;26;20007;-77
2024/04/21 09:00:52;;;;;;;8.00;3.63;;;8.40;99.90;;;;;;5453181;26;20021;-77
2024/04/21 09:03:19;;;;;;;6.25;3.03;;;8.80;99.90;;;;;;5471465;26;20021;-77
2024/04/21 09:05:50;;;;;;;7.05;3.30;;;9.00;99.90;;;;;;5484619;26;20013;-77
2024/04/21 09:08:16;;;;;;;9.45;3.47;;;9.70;99.90;;;;;;5467023;26;20080;-77
2024/04/21 09:10:41;;;;;;;5.88;2.90;;;9.90;99.90;;;;;;5463855;26;20363;-77
2024/04/21 09:13:09;;;;;;;8.13;3.20;;;9.80;99.90;;;;;;5456501;26;20101;-77
2024/04/21 09:15:34;;;;;;;6.72;3.10;;;9.80;99.90;;;;;;5453798;26;20021;-77
2024/04/21 09:18:01;;;;;;;5.85;3.00;;;9.60;99.90;;;;;;5476462;26;20018;-77
2024/04/21 09:20:26;;;;;;;9.73;3.20;;;9.50;99.90;;;;;;5461084;26;20007;-77
2024/04/21 09:22:53;;;;;;;;;;;9.60;99.90;;;;;;5453476;26;20038;-77
2024/04/21 09:25:18;;;;;;;8.95;3.10;;;9.60;99.90;;;;;;5457666;26;20365;-77
2024/04/21 09:27:48;;;;;;;5.18;2.60;;;10.10;99.90;;;;;;5465230;26;20011;-77
2024/04/21 09:30:14;;;;;;;5.07;3.03;;;10.10;99.90;;;;;;5455516;26;20018;-77
2024/04/21 09:32:39;;;;;;;4.40;2.67;;;10.30;99.90;;;;;;5465289;26;20014;-77
2024/04/21 09:35:05;;;;;;;;;;;10.50;99.90;;;;;;5464123;26;20460;-77
2024/04/21 09:37:31;;;;;;;7.70;3.17;;;10.60;99.90;;;;;;5457871;26;19925;-77
2024/04/21 09:39:58;;;;;;;5.10;2.70;;;10.90;99.90;;;;;;5461261;26;20022;-77
2024/04/21 09:42:28;;;;;;;6.70;2.92;;;11.20;99.90;;;;;;5456138;26;20007;-77
2024/04/21 09:44:55;;;;;;;5.55;2.70;;;11.50;99.90;;;;;;5460760;26;20022;-77
2024/04/21 09:47:21;;;;;;;4.80;2.60;;;11.70;99.90;;;;;;5450283;26;20017;-77
2024/04/21 09:49:47;;;;;;;4.43;2.25;;;11.70;99.90;;;;;;5453831;26;20068;-77
2024/04/21 09:52:16;;;;;;;6.03;2.40;;;11.80;99.90;;;;;;5469844;26;20648;-77
2024/04/21 09:54:43;;;;;;;3.72;2.15;;;11.60;99.90;;;;;;5453402;26;20018;-77
2024/04/21 09:57:12;;;;;;;4.60;2.63;;;11.50;99.90;;;;;;5456364;26;20007;-77
2024/04/21 09:59:38;;;;;;;3.92;2.40;;;11.30;99.90;;;;;;5450755;26;20007;-77
2024/04/21 10:02:13;;;;;;;3.35;2.20;;;11.40;99.90;;;;;;5460869;26;20050;-77
2024/04/21 10:04:45;;;;;;;6.10;2.40;;;11.60;99.90;;;;;;5465562;26;20531;-77
2024/04/21 10:07:10;;;;;;;5.70;2.53;;;11.90;99.90;;;;;;5481956;26;20091;-77
2024/04/21 10:09:37;;;;;;;3.67;2.45;;;12.00;99.90;;;;;;5453080;26;20011;-77
2024/04/21 10:12:04;;;;;;;6.95;2.80;;;12.20;99.90;;;;;;5460746;26;20018;-77
2024/04/21 10:14:30;;;;;;;4.13;2.50;;;12.40;99.90;;;;;;5468210;26;20108;-77
2024/04/21 10:16:56;;;;;;;3.33;2.38;;;12.50;99.90;;;;;;5451782;26;20027;-77
2024/04/21 10:19:24;;;;;;;4.50;2.40;;;12.50;99.90;;;;;;5486297;26;20006;-77
2024/04/21 10:21:49;;;;;;;4.43;2.40;;;12.40;99.90;;;;;;5452887;26;20006;-77
2024/04/21 10:24:18;;;;;;;5.00;2.40;;;12.20;99.90;;;;;;5470824;26;20053;-77
2024/04/21 10:26:44;;;;;;;5.40;2.47;;;11.90;99.90;;;;;;5449753;26;20018;-77
2024/04/21 10:29:11;;;;;;;4.68;2.10;;;11.50;99.90;;;;;;5462474;26;20018;-77
2024/04/21 10:31:36;;;;;;;3.88;2.20;;;11.30;99.90;;;;;;5466395;26;20024;-77
2024/04/21 10:34:08;;;;;;;3.45;2.20;;;11.30;99.90;;;;;;5453435;26;20017;-77
2024/04/21 10:36:44;;;;;;;3.53;2.30;;;11.20;99.90;;;;;;5456407;26;20006;-77
2024/04/21 10:39:10;;;;;;;4.07;1.90;;;11.10;99.90;;;;;;5462666;26;20007;-77
2024/04/21 10:41:45;;;;;;;3.67;2.17;;;10.90;99.90;;;;;;5462711;26;20020;-77
2024/04/21 10:44:11;;;;;;;3.53;2.30;;;10.80;99.90;;;;;;5453240;26;20024;-77
2024/04/21 10:46:37;;;;;;;4.20;1.95;;;10.60;99.90;;;;;;5463441;26;20017;-77
2024/04/21 10:49:03;;;;;;;4.82;2.10;;;10.60;99.90;;;;;;5463992;26;20019;-77
2024/04/21 10:51:30;;;;;;;3.95;2.22;;;10.40;99.90;;;;;;5457910;26;20021;-77
2024/04/21 10:53:56;;;;;;;5.28;2.30;;;10.40;99.90;;;;;;5463597;26;20018;-77
2024/04/21 10:56:22;;;;;;;3.20;2.00;;;10.30;99.90;;;;;;5480336;26;20136;-77
2024/04/21 10:58:48;;;;;;;6.30;2.30;;;10.30;99.90;;;;;;5464010;26;20474;-77
2024/04/21 11:01:14;;;;;;;3.80;2.08;;;10.50;99.90;;;;;;5453956;26;20007;-77
2024/04/21 11:03:41;;;;;;;4.70;2.63;;;10.60;99.90;;;;;;5458211;26;20033;-77
2024/04/21 11:06:10;;;;;;;3.75;2.10;;;10.70;99.90;;;;;;5452868;26;20019;-77
2024/04/21 11:08:36;;;;;;;2.92;2.13;;;10.70;99.90;;;;;;5472697;26;20537;-77
2024/04/21 11:11:03;;;;;;;3.28;2.20;;;10.70;99.90;;;;;;5448666;26;20433;-77
2024/04/21 11:13:30;;;;;;;4.55;1.95;;;10.60;99.90;;;;;;5458875;26;20007;-77
2024/04/21 11:15:56;;;;;;;4.65;2.00;;;10.50;99.90;;;;;;5453533;26;20082;-77
2024/04/21 11:18:22;;;;;;;4.63;2.00;;;10.70;99.90;;;;;;5457643;26;20834;-77
2024/04/21 11:20:48;;;;;;;2.83;1.85;;;10.30;99.90;;;;;;5464084;26;20011;-77
2024/04/21 11:23:18;;;;;;;4.00;2.13;;;10.40;99.90;;;;;;5463889;26;20010;-77
2024/04/21 11:25:46;;;;;;;3.17;1.90;;;10.40;99.90;;;;;;5461072;26;20090;-77
2024/04/21 11:28:14;;;;;;;3.65;1.70;;;10.40;99.90;;;;;;5454597;26;20014;-77
2024/04/21 11:30:40;;;;;;;4.20;1.88;;;10.40;99.90;;;;;;5462707;26;20029;-77
2024/04/21 11:33:06;;;;;;;3.22;1.70;;;10.40;99.90;;;;;;5474001;26;20079;-77
2024/04/21 11:35:32;;;;;;;3.65;2.03;;;10.40;99.90;;;;;;5451610;26;20018;-77
2024/04/21 11:37:58;;;;;;;3.13;1.95;;;10.50;99.90;;;;;;5462817;26;20014;-77
2024/04/21 11:40:24;;;;;;;4.00;1.90;;;10.70;99.90;;;;;;5456183;26;20007;-77
2024/04/21 11:42:50;;;;;;;3.85;2.05;;;10.70;99.90;;;;;;5451229;26;20021;-77
2024/04/21 11:45:29;;;;;;;3.22;2.00;;;10.70;99.90;;;;;;5462872;26;20530;-77
2024/04/21 11:48:00;;;;;;;3.65;2.00;;;10.80;99.90;;;;;;5475635;26;20083;-77
2024/04/21 11:50:26;;;;;;;2.80;1.92;;;10.70;99.90;;;;;;5466115;26;20087;-77
2024/04/21 11:52:53;;;;;;;3.85;2.10;;;10.70;99.90;;;;;;5461668;26;20104;-77
2024/04/21 11:55:19;;;;;;;3.50;2.10;;;10.60;99.90;;;;;;5480738;26;20006;-77
2024/04/21 11:57:44;;;;;;;6.18;2.38;;;10.60;99.90;;;;;;5465955;26;20078;-77
2024/04/21 12:00:11;;;;;;;5.40;2.35;;;10.60;99.90;;;;;;5459361;26;20011;-77
2024/04/21 12:02:36;;;;;;;5.32;1.92;;;10.70;99.90;;;;;;5460501;26;20451;-77
2024/04/21 12:05:02;;;;;;;4.13;2.38;;;11.10;99.90;;;;;;5462927;26;20083;-77
2024/04/21 12:07:28;;;;;;;9.38;4.57;;;11.40;99.90;;;;;;5456718;26;20013;-77
2024/04/21 12:09:54;;;;;;;7.20;3.67;;;11.70;99.90;;;;;;5461718;26;20074;-77
2024/04/21 12:12:19;;;;;;;;;;;12.10;99.90;;;;;;5461580;26;20006;-76
2024/04/21 12:14:45;;;;;;;4.88;2.50;;;12.40;99.90;;;;;;5452409;26;19925;-77
2024/04/21 12:17:16;;;;;;;3.88;2.17;;;12.60;99.90;;;;;;5484649;26;20016;-77
2024/04/21 12:19:43;;;;;;;4.88;2.60;;;12.60;99.90;;;;;;5469261;26;20010;-77
2024/04/21 12:22:09;;;;;;;2.97;2.13;;;12.70;99.90;;;;;;5468826;26;20471;-77
2024/04/21 12:24:35;;;;;;;2.80;1.83;;;12.60;99.90;;;;;;5464951;26;20078;-77
2024/04/21 12:27:01;;;;;;;2.90;1.88;;;12.50;99.90;;;;;;5465649;26;20003;-77
2024/04/21 12:29:27;;;;;;;4.30;1.90;;;12.20;99.90;;;;;;5450228;26;20007;-77
2024/04/21 12:31:53;;;;;;;3.40;1.77;;;11.90;99.90;;;;;;5466405;26;20006;-77
2024/04/21 12:34:19;;;;;;;3.30;1.90;;;11.80;99.90;;;;;;5473293;26;20025;-77
2024/04/21 12:36:44;;;;;;;2.20;1.65;;;11.50;99.90;;;;;;5467164;26;20362;-77
2024/04/21 12:39:10;;;;;;;8.57;1.70;;;11.10;99.90;;;;;;5456229;26;20003;-77
2024/04/21 12:41:36;;;;;;;4.30;1.75;;;10.80;99.90;;;;;;5461458;26;20010;-77
2024/04/21 12:44:01;;;;;;;5.22;1.70;;;10.70;99.90;;;;;;5454661;26;20007;-77
2024/04/21 12:46:27;;;;;;;3.72;1.75;;;10.40;99.90;;;;;;5457885;26;20015;-77
2024/04/21 12:48:53;;;;;;;2.13;1.27;;;10.30;99.90;;;;;;5460638;26;20489;-77
2024/04/21 12:51:19;;;;;;;2.20;1.50;;;10.10;99.90;;;;;;5464202;26;20006;-77
2024/04/21 12:53:44;;;;;;;1.92;1.40;;;10.10;99.90;;;;;;5463734;26;20347;-77
2024/04/21 12:56:10;;;;;;;2.70;1.35;;;10.10;99.90;;;;;;5463689;26;20006;-77
2024/04/21 12:58:36;;;;;;;6.88;1.40;;;10.10;99.90;;;;;;5452248;26;20023;-77